Etusivu
METAR-TAF:

METAR-TAF

Lentoasemat :

Merrill Municipal Airport

Merrill, Wisconsin, Yhdysvallat

Leveyspiiri: 45-11N, Pituuspiiri: 089-42W, korkeus merenpinnasta: 401 m

Tämänhetkinen sää

Tämä raportti tehtiin 13 minuuttia sitten, kello 08.55 UTC
Tuuli 6 kn kaakosta
Lämpötila -8°C
Kosteus 52%
Ilmanpaine 1019 hPa
Näkyvyys: 16.1 km
Pilvistä 4400 ft:n korkeudessa

METAR: KRRL 170855Z AUTO 13006KT 10SM OVC044 M08/M16 A3008 RMK AO2 T10851165 TSNO

Aika: 03:08 (09:08 UTC)


TAF: puuttuu

Säähavainnot ja -ennusteet yli 4000 lentoasemalta (METAR- ja TAF-raportit).

Käytössä olevat sääasemat on merkitty karttaan keltaisilla ja punaisilla pisteillä.

Aseta hiiri pisteen päälle nähdäksesi sääaseman nimen.

Klikkaa sitten nähdäksesi säähavainnot ja -ennusteet.

Kartan vaihtaminen: klikkaa mustalla rastilla varustettuja vihreitä pisteitä, niin voit zoomata sisään; viivalla varustettua vihreää pistettä, niin voit zoomata ulos tai vihreitä nuolia, niin pääset viereisille kartoille.


METAR-TAF: